createdAt,value
2023-04-15T00:02:26.199Z,5.13
2023-04-15T00:04:54.466Z,5.20
2023-04-15T00:07:22.997Z,5.00
2023-04-15T00:09:55.005Z,4.82
2023-04-15T00:12:24.532Z,5.18
2023-04-15T00:14:52.539Z,5.40
2023-04-15T00:17:20.643Z,5.50
2023-04-15T00:19:48.654Z,5.00
2023-04-15T00:22:17.228Z,5.15
2023-04-15T00:24:45.244Z,5.38
2023-04-15T00:27:13.256Z,6.00
2023-04-15T00:29:42.639Z,5.38
2023-04-15T00:32:10.789Z,5.95
2023-04-15T00:34:38.799Z,5.50
2023-04-15T00:37:06.800Z,5.78
2023-04-15T00:39:35.085Z,4.72
2023-04-15T00:42:03.826Z,5.03
2023-04-15T00:44:32.149Z,4.60
2023-04-15T00:47:02.808Z,5.22
2023-04-15T00:49:32.198Z,4.82
2023-04-15T00:52:00.226Z,4.63
2023-04-15T00:54:28.177Z,4.68
2023-04-15T00:56:56.521Z,4.85
2023-04-15T00:59:25.017Z,4.70
2023-04-15T01:01:53.197Z,4.50
2023-04-15T01:04:23.073Z,4.60
2023-04-15T01:06:51.254Z,4.95
2023-04-15T01:09:19.525Z,4.90
2023-04-15T01:11:47.692Z,5.00
2023-04-15T01:14:16.159Z,4.20
2023-04-15T01:16:45.300Z,5.03
2023-04-15T01:19:15.495Z,4.65
2023-04-15T01:21:45.104Z,4.80
2023-04-15T01:24:14.736Z,5.00
2023-04-15T01:26:44.725Z,3.85
2023-04-15T01:29:13.097Z,4.40
2023-04-15T01:31:41.131Z,4.28
2023-04-15T01:34:09.188Z,4.40
2023-04-15T01:36:37.542Z,4.35
2023-04-15T01:39:06.609Z,4.28
2023-04-15T01:41:34.964Z,4.60
2023-04-15T01:44:04.381Z,3.88
2023-04-15T01:46:32.367Z,4.35
2023-04-15T01:49:01.964Z,4.28
2023-04-15T01:51:30.175Z,3.90
2023-04-15T01:53:58.228Z,4.40
2023-04-15T01:56:26.502Z,4.38
2023-04-15T01:58:54.624Z,4.00
2023-04-15T02:01:24.068Z,4.30
2023-04-15T02:03:52.230Z,3.88
2023-04-15T02:06:21.059Z,3.55
2023-04-15T02:08:49.470Z,3.45
2023-04-15T02:11:17.522Z,3.30
2023-04-15T02:13:45.550Z,3.88
2023-04-15T02:16:18.211Z,4.15
2023-04-15T02:18:48.148Z,3.95
2023-04-15T02:21:16.272Z,4.50
2023-04-15T02:23:44.879Z,3.97
2023-04-15T02:26:14.856Z,4.60
2023-04-15T02:28:42.858Z,4.10
2023-04-15T02:31:10.975Z,4.72
2023-04-15T02:33:38.982Z,5.40
2023-04-15T02:36:10.070Z,5.20
2023-04-15T02:38:38.236Z,5.47
2023-04-15T02:41:06.434Z,5.75
2023-04-15T02:43:35.518Z,6.18
2023-04-15T02:46:03.722Z,6.72
2023-04-15T02:48:31.887Z,6.82
2023-04-15T02:51:14.745Z,5.57
2023-04-15T02:53:42.906Z,6.10
2023-04-15T02:56:11.725Z,5.68
2023-04-15T02:58:41.178Z,6.40
2023-04-15T03:01:09.799Z,5.90
2023-04-15T03:03:38.198Z,6.35
2023-04-15T03:06:06.596Z,6.55
2023-04-15T03:08:36.321Z,5.60
2023-04-15T03:11:04.589Z,5.60
2023-04-15T03:13:33.849Z,6.32
2023-04-15T03:16:08.686Z,5.30
2023-04-15T03:18:36.806Z,5.78
2023-04-15T03:21:05.060Z,4.80
2023-04-15T03:23:37.461Z,5.55
2023-04-15T03:26:06.210Z,5.13
2023-04-15T03:28:35.095Z,5.60
2023-04-15T03:31:03.689Z,5.90
2023-04-15T03:33:32.022Z,5.10
2023-04-15T03:36:00.324Z,5.28
2023-04-15T03:38:28.675Z,5.45
2023-04-15T03:40:57.981Z,5.43
2023-04-15T03:43:26.437Z,5.95
2023-04-15T03:45:54.475Z,5.90
2023-04-15T03:48:22.610Z,6.25
2023-04-15T03:50:50.883Z,5.78
2023-04-15T03:53:18.866Z,5.13
2023-04-15T03:55:47.047Z,5.57
2023-04-15T03:58:16.632Z,6.25
2023-04-15T04:00:44.685Z,6.43
2023-04-15T04:03:12.823Z,6.90
2023-04-15T04:05:41.539Z,6.20
2023-04-15T04:08:09.533Z,6.95
2023-04-15T04:10:37.663Z,6.80
2023-04-15T04:13:05.639Z,6.15
2023-04-15T04:15:35.074Z,6.90
2023-04-15T04:18:03.669Z,6.72
2023-04-15T04:20:32.949Z,7.35
2023-04-15T04:23:00.932Z,6.68
2023-04-15T04:25:28.972Z,7.35
2023-04-15T04:27:57.041Z,6.80
2023-04-15T04:30:25.011Z,7.03
2023-04-15T04:32:54.446Z,6.78
2023-04-15T04:35:22.958Z,7.85
2023-04-15T04:37:50.998Z,6.75
2023-04-15T04:40:19.232Z,6.40
2023-04-15T04:42:47.324Z,6.35
2023-04-15T04:45:15.375Z,6.40
2023-04-15T04:47:43.398Z,6.63
2023-04-15T04:50:12.923Z,6.00
2023-04-15T04:52:41.151Z,7.07
2023-04-15T04:55:09.583Z,6.55
2023-04-15T04:57:37.762Z,6.93
2023-04-15T05:00:08.509Z,6.95
2023-04-15T05:02:37.213Z,6.15
2023-04-15T05:05:06.698Z,6.22
2023-04-15T05:07:36.146Z,6.78
2023-04-15T05:10:04.621Z,7.03
2023-04-15T05:12:32.687Z,6.97
2023-04-15T05:15:00.671Z,7.07
2023-04-15T05:17:28.890Z,7.07
2023-04-15T05:19:56.927Z,8.23
2023-04-15T05:22:25.037Z,7.60
2023-04-15T05:24:54.326Z,8.30
2023-04-15T05:27:22.657Z,8.60
2023-04-15T05:29:50.596Z,8.93
2023-04-15T05:32:18.631Z,8.52
2023-04-15T05:34:47.070Z,8.25
2023-04-15T05:37:15.028Z,8.07
2023-04-15T05:39:43.115Z,8.68
2023-04-15T05:42:12.473Z,7.22
2023-04-15T05:44:40.550Z,7.60
2023-04-15T05:47:09.650Z,7.63
2023-04-15T05:49:37.642Z,7.95
2023-04-15T05:52:06.058Z,8.43
2023-04-15T05:54:34.256Z,7.93
2023-04-15T05:57:02.794Z,8.70
2023-04-15T05:59:32.718Z,8.30
2023-04-15T06:02:00.897Z,9.35
2023-04-15T06:04:29.510Z,9.50
2023-04-15T06:06:57.805Z,9.73
2023-04-15T06:09:25.815Z,8.90
2023-04-15T06:11:54.326Z,9.98
2023-04-15T06:14:22.338Z,10.27
2023-04-15T06:16:51.746Z,9.77
2023-04-15T06:19:20.563Z,10.65
2023-04-15T06:21:48.724Z,8.65
2023-04-15T06:24:16.776Z,9.02
2023-04-15T06:26:44.835Z,9.70
2023-04-15T06:29:12.855Z,9.40
2023-04-15T06:31:41.043Z,9.50
2023-04-15T06:34:11.145Z,10.05
2023-04-15T06:36:39.130Z,10.02
2023-04-15T06:39:07.080Z,10.13
2023-04-15T06:41:35.539Z,9.65
2023-04-15T06:44:03.694Z,9.00
2023-04-15T06:46:31.812Z,9.90
2023-04-15T06:48:59.981Z,10.80
2023-04-15T06:51:29.520Z,9.32
2023-04-15T06:53:57.837Z,10.27
2023-04-15T06:56:26.042Z,10.15
2023-04-15T06:58:54.017Z,10.10
2023-04-15T07:01:23.559Z,9.27
2023-04-15T07:03:55.111Z,11.63
2023-04-15T07:06:23.326Z,9.60
2023-04-15T07:08:52.677Z,10.27
2023-04-15T07:11:21.179Z,9.07
2023-04-15T07:13:49.256Z,11.68
2023-04-15T07:16:17.423Z,9.57
2023-04-15T07:18:45.773Z,10.68
2023-04-15T07:21:13.921Z,8.50
2023-04-15T07:23:43.166Z,10.45
2023-04-15T07:26:12.772Z,10.23
2023-04-15T07:28:41.223Z,9.70
2023-04-15T07:31:09.284Z,10.30
2023-04-15T07:33:37.539Z,9.10
2023-04-15T07:36:05.743Z,8.30
2023-04-15T07:38:33.784Z,9.07
2023-04-15T07:41:01.938Z,9.18
2023-04-15T07:43:31.412Z,9.45
2023-04-15T07:46:00.286Z,9.25
2023-04-15T07:48:28.403Z,8.05
2023-04-15T07:50:56.411Z,9.07
2023-04-15T07:53:24.438Z,9.68
2023-04-15T07:55:52.535Z,10.77
2023-04-15T07:58:20.803Z,8.63
2023-04-15T08:00:50.362Z,9.48
2023-04-15T08:03:18.502Z,9.55
2023-04-15T08:05:47.338Z,9.25
2023-04-15T08:08:15.429Z,8.75
2023-04-15T08:10:43.474Z,8.48
2023-04-15T08:13:11.719Z,6.88
2023-04-15T08:15:39.775Z,7.50
2023-04-15T08:18:09.118Z,7.05
2023-04-15T08:20:37.257Z,6.07
2023-04-15T08:23:05.780Z,7.32
2023-04-15T08:25:33.877Z,7.18
2023-04-15T08:28:05.656Z,7.50
2023-04-15T08:30:34.525Z,7.15
2023-04-15T08:33:02.817Z,7.25
2023-04-15T08:35:32.733Z,5.78
2023-04-15T08:38:00.724Z,5.63
2023-04-15T08:40:36.879Z,6.93
2023-04-15T08:43:06.577Z,5.72
2023-04-15T08:45:35.659Z,5.07
2023-04-15T08:48:06.589Z,4.90
2023-04-15T08:50:36.674Z,5.57
2023-04-15T08:53:04.837Z,6.53
2023-04-15T08:55:36.551Z,6.68
2023-04-15T08:58:05.669Z,6.72
2023-04-15T09:00:34.386Z,7.13
2023-04-15T09:03:03.104Z,7.15
2023-04-15T09:05:35.157Z,6.38
2023-04-15T09:08:04.032Z,6.68
2023-04-15T09:10:32.450Z,7.40
2023-04-15T09:13:02.807Z,7.88
2023-04-15T09:15:33.840Z,6.85
2023-04-15T09:18:01.910Z,6.60
2023-04-15T09:20:30.046Z,7.45
2023-04-15T09:22:59.467Z,7.10
2023-04-15T09:25:29.564Z,6.70
2023-04-15T09:27:59.278Z,6.80
2023-04-15T09:30:28.766Z,6.45
2023-04-15T09:32:58.615Z,6.05
2023-04-15T09:35:27.944Z,5.50
2023-04-15T09:38:05.415Z,5.70
2023-04-15T09:40:34.978Z,5.70
2023-04-15T09:43:03.538Z,5.40
2023-04-15T09:45:31.891Z,5.80
2023-04-15T09:48:00.764Z,5.93
2023-04-15T09:50:30.592Z,6.03
2023-04-15T09:52:59.583Z,6.25
2023-04-15T09:55:28.914Z,5.97
2023-04-15T09:57:56.951Z,5.85
2023-04-15T10:00:25.086Z,5.50
2023-04-15T10:02:53.550Z,5.93
2023-04-15T10:05:23.368Z,5.18
2023-04-15T10:07:51.584Z,5.78
2023-04-15T10:10:20.030Z,5.47
2023-04-15T10:12:50.597Z,5.50
2023-04-15T10:15:19.925Z,6.03
2023-04-15T10:17:52.035Z,5.95
2023-04-15T10:20:21.987Z,6.15
2023-04-15T10:22:50.692Z,5.80
2023-04-15T10:25:19.498Z,5.68
2023-04-15T10:27:52.058Z,5.45
2023-04-15T10:30:20.232Z,5.45
2023-04-15T10:32:48.609Z,6.20
2023-04-15T10:35:17.957Z,5.80
2023-04-15T10:37:46.009Z,5.80
2023-04-15T10:40:31.626Z,5.65
2023-04-15T10:43:02.099Z,5.32
2023-04-15T10:45:33.616Z,5.68
2023-04-15T10:48:04.977Z,5.85
2023-04-15T10:50:33.980Z,5.72
2023-04-15T10:53:04.753Z,5.80
2023-04-15T10:55:34.178Z,6.10
2023-04-15T10:58:04.172Z,5.80
2023-04-15T11:00:35.176Z,6.03
2023-04-15T11:03:07.988Z,5.90
2023-04-15T11:05:51.011Z,6.43
2023-04-15T11:08:19.428Z,6.60
2023-04-15T11:10:56.554Z,5.90
2023-04-15T11:13:31.374Z,5.93
2023-04-15T11:16:01.724Z,5.45
2023-04-15T11:18:32.879Z,5.90
2023-04-15T11:21:03.472Z,6.38
2023-04-15T11:23:44.006Z,5.18
2023-04-15T11:26:12.720Z,5.20
2023-04-15T11:28:43.705Z,5.50
2023-04-15T11:31:13.506Z,6.00
2023-04-15T11:33:56.556Z,5.82
2023-04-15T11:36:27.238Z,5.40
2023-04-15T11:38:55.526Z,5.38
2023-04-15T11:41:24.278Z,7.57
2023-04-15T11:43:54.104Z,5.25
2023-04-15T11:46:22.925Z,5.45
2023-04-15T11:48:51.142Z,5.00
2023-04-15T11:51:21.776Z,5.03
2023-04-15T11:53:52.048Z,5.75
2023-04-15T11:56:22.014Z,6.10
2023-04-15T11:58:52.754Z,6.78
2023-04-15T12:01:22.452Z,5.90
2023-04-15T12:03:50.778Z,5.80
2023-04-15T12:06:21.027Z,6.30
2023-04-15T12:09:05.015Z,6.30
2023-04-15T12:11:44.421Z,6.07
2023-04-15T12:14:16.979Z,6.68
2023-04-15T12:16:51.794Z,6.28
2023-04-15T12:22:00.523Z,6.57
2023-04-15T12:24:29.258Z,6.60
2023-04-15T12:26:58.422Z,6.78
2023-04-15T12:29:28.864Z,6.10
2023-04-15T12:31:59.082Z,5.55
2023-04-15T12:34:29.404Z,6.57
2023-04-15T12:36:59.312Z,6.22
2023-04-15T12:39:30.518Z,6.85
2023-04-15T12:41:59.322Z,6.35
2023-04-15T12:44:27.877Z,6.55
2023-04-15T12:46:56.504Z,6.30
2023-04-15T12:49:26.644Z,7.05
2023-04-15T12:51:56.256Z,6.57
2023-04-15T12:54:24.738Z,6.88
2023-04-15T12:56:52.988Z,5.50
2023-04-15T12:59:21.620Z,6.60
2023-04-15T13:01:50.266Z,6.28
2023-04-15T13:04:18.563Z,6.68
2023-04-15T13:06:48.049Z,6.05
2023-04-15T13:09:16.265Z,5.50
2023-04-15T13:11:44.586Z,5.60
2023-04-15T13:14:13.038Z,6.18
2023-04-15T13:16:41.448Z,5.80
2023-04-15T13:19:09.714Z,5.43
2023-04-15T13:21:37.652Z,6.22
2023-04-15T13:24:08.193Z,6.78
2023-04-15T13:26:36.443Z,6.30
2023-04-15T13:29:05.951Z,5.85
2023-04-15T13:31:34.111Z,6.55
2023-04-15T13:34:02.153Z,7.10
2023-04-15T13:36:30.179Z,6.97
2023-04-15T13:38:58.455Z,9.95
2023-04-15T13:41:27.875Z,6.85
2023-04-15T13:43:55.894Z,6.85
2023-04-15T13:46:23.933Z,7.25
2023-04-15T13:48:51.890Z,6.55
2023-04-15T13:51:19.954Z,6.85
2023-04-15T13:53:48.030Z,6.97
2023-04-15T13:56:16.075Z,6.95
2023-04-15T13:58:45.576Z,6.38
2023-04-15T14:01:13.660Z,6.60
2023-04-15T14:03:41.851Z,6.65
2023-04-15T14:06:10.131Z,6.20
2023-04-15T14:08:38.215Z,6.25
2023-04-15T14:11:06.190Z,6.18
2023-04-15T14:13:34.151Z,6.68
2023-04-15T14:16:03.590Z,6.07
2023-04-15T14:18:31.606Z,5.60
2023-04-15T14:20:59.919Z,6.50
2023-04-15T14:23:27.966Z,5.85
2023-04-15T14:25:56.339Z,6.20
2023-04-15T14:28:24.317Z,5.95
2023-04-15T14:30:52.393Z,6.15
2023-04-15T14:33:21.739Z,6.00
2023-04-15T14:35:50.855Z,7.13
2023-04-15T14:38:18.973Z,6.63
2023-04-15T14:40:47.624Z,6.75
2023-04-15T14:43:15.698Z,9.13
2023-04-15T14:45:45.310Z,6.40
2023-04-15T14:48:13.876Z,7.15
2023-04-15T14:50:43.343Z,6.47
2023-04-15T14:53:11.451Z,6.15
2023-04-15T14:55:39.502Z,5.60
2023-04-15T14:58:08.263Z,5.32
2023-04-15T15:00:39.215Z,5.82
2023-04-15T15:03:12.660Z,5.40
2023-04-15T15:05:41.244Z,5.28
2023-04-15T15:08:11.318Z,5.68
2023-04-15T15:10:49.034Z,5.70
2023-04-15T15:13:19.032Z,6.28
2023-04-15T15:15:49.258Z,5.63
2023-04-15T15:18:18.947Z,5.57
2023-04-15T15:20:47.391Z,6.43
2023-04-15T15:23:16.861Z,6.22
2023-04-15T15:25:45.082Z,4.88
2023-04-15T15:28:13.113Z,6.07
2023-04-15T15:30:41.106Z,5.25
2023-04-15T15:33:09.098Z,4.95
2023-04-15T15:35:37.245Z,5.43
2023-04-15T15:38:06.336Z,5.03
2023-04-15T15:40:35.687Z,5.15
2023-04-15T15:43:04.460Z,4.97
2023-04-15T15:45:32.557Z,4.95
2023-04-15T15:48:00.733Z,5.30
2023-04-15T15:50:28.764Z,5.03
2023-04-15T15:52:58.562Z,5.30
2023-04-15T15:55:27.225Z,5.10
2023-04-15T15:57:56.641Z,4.63
2023-04-15T16:00:24.765Z,6.00
2023-04-15T16:03:06.959Z,4.55
2023-04-15T16:05:36.092Z,5.72
2023-04-15T16:08:04.540Z,4.68
2023-04-15T16:10:32.502Z,5.35
2023-04-15T16:13:02.010Z,4.63
2023-04-15T16:15:30.321Z,5.00
2023-04-15T16:17:58.395Z,4.50
2023-04-15T16:20:26.545Z,4.80
2023-04-15T16:22:54.762Z,5.90
2023-04-15T16:25:22.707Z,5.00
2023-04-15T16:28:03.176Z,5.03
2023-04-15T16:33:07.461Z,4.85
2023-04-15T16:35:35.766Z,4.57
2023-04-15T16:38:04.034Z,5.07
2023-04-15T16:40:32.842Z,5.72
2023-04-15T16:43:00.852Z,4.95
2023-04-15T16:45:29.002Z,4.40
2023-04-15T16:47:58.481Z,4.63
2023-04-15T16:50:26.550Z,4.35
2023-04-15T16:52:54.767Z,4.70
2023-04-15T16:55:22.892Z,4.60
2023-04-15T16:58:01.440Z,4.60
2023-04-15T17:00:31.669Z,4.80
2023-04-15T17:03:01.718Z,5.10
2023-04-15T17:05:30.584Z,4.40
2023-04-15T17:07:58.752Z,4.85
2023-04-15T17:10:26.814Z,4.80
2023-04-15T17:12:57.327Z,5.13
2023-04-15T17:15:25.967Z,5.47
2023-04-15T17:17:54.111Z,5.45
2023-04-15T17:20:23.735Z,5.47
2023-04-15T17:22:51.826Z,5.43
2023-04-15T17:25:19.843Z,5.07
2023-04-15T17:27:47.809Z,4.90
2023-04-15T17:30:16.108Z,4.85
2023-04-15T17:32:44.214Z,5.13
2023-04-15T17:35:12.348Z,4.22
2023-04-15T17:37:42.040Z,4.90
2023-04-15T17:40:14.745Z,4.60
2023-04-15T17:42:42.787Z,3.95
2023-04-15T17:45:11.634Z,4.03
2023-04-15T17:47:39.650Z,4.55
2023-04-15T17:50:09.085Z,4.03
2023-04-15T17:52:37.181Z,4.68
2023-04-15T17:55:07.539Z,5.00
2023-04-15T17:57:36.178Z,5.35
2023-04-15T18:00:04.443Z,5.25
2023-04-15T18:02:41.085Z,5.40
2023-04-15T18:05:10.426Z,5.05
2023-04-15T18:07:38.613Z,5.43
2023-04-15T18:10:09.656Z,5.38
2023-04-15T18:12:37.776Z,5.60
2023-04-15T18:15:06.702Z,4.85
2023-04-15T18:17:34.790Z,4.63
2023-04-15T18:20:02.915Z,4.38
2023-04-15T18:22:31.067Z,4.72
2023-04-15T18:25:04.352Z,4.90
2023-04-15T18:27:34.943Z,4.45
2023-04-15T18:30:03.085Z,4.65
2023-04-15T18:32:32.757Z,4.13
2023-04-15T18:35:01.019Z,5.50
2023-04-15T18:37:29.937Z,4.35
2023-04-15T18:39:58.304Z,4.82
2023-04-15T18:42:26.641Z,4.40
2023-04-15T18:44:56.127Z,5.50
2023-04-15T18:47:26.500Z,5.10
2023-04-15T18:49:55.137Z,4.75
2023-04-15T18:52:23.118Z,5.90
2023-04-15T18:54:51.195Z,5.35
2023-04-15T18:57:23.038Z,7.72
2023-04-15T19:00:02.113Z,6.10
2023-04-15T19:02:30.258Z,7.63
2023-04-15T19:04:58.285Z,8.40
2023-04-15T19:07:26.648Z,7.82
2023-04-15T19:09:54.765Z,7.75
2023-04-15T19:12:22.724Z,8.40
2023-04-15T19:14:50.792Z,7.78
2023-04-15T19:17:20.170Z,7.30
2023-04-15T19:19:48.222Z,7.35
2023-04-15T19:22:17.545Z,6.80
2023-04-15T19:24:46.943Z,6.13
2023-04-15T19:27:15.059Z,6.15
2023-04-15T19:29:43.083Z,5.90
2023-04-15T19:32:11.305Z,5.72
2023-04-15T19:34:40.732Z,5.03
2023-04-15T19:37:08.741Z,6.30
2023-04-15T19:39:36.713Z,7.22
2023-04-15T19:42:04.773Z,6.53
2023-04-15T19:44:32.873Z,6.55
2023-04-15T19:47:00.927Z,6.90
2023-04-15T19:49:28.972Z,7.60
2023-04-15T19:51:58.339Z,6.90
2023-04-15T19:54:26.447Z,5.90
2023-04-15T19:56:54.385Z,5.90
2023-04-15T19:59:22.336Z,5.22
2023-04-15T20:01:50.442Z,4.78
2023-04-15T20:04:18.598Z,5.70
2023-04-15T20:06:46.544Z,5.93
2023-04-15T20:09:15.984Z,5.22
2023-04-15T20:12:48.059Z,5.63
2023-04-15T20:14:32.096Z,5.45
2023-04-15T20:17:00.018Z,5.75
2023-04-15T20:19:27.986Z,5.90
2023-04-15T20:21:56.037Z,5.80
2023-04-15T20:24:25.366Z,6.40
2023-04-15T20:26:53.339Z,6.53
2023-04-15T20:29:21.301Z,6.88
2023-04-15T20:31:49.393Z,6.35
2023-04-15T20:34:17.413Z,12.88
2023-04-15T20:36:45.613Z,9.25
2023-04-15T20:39:13.607Z,9.57
2023-04-15T20:41:42.930Z,8.65
2023-04-15T20:44:10.962Z,9.40
2023-04-15T20:46:39.023Z,10.50
2023-04-15T20:49:07.278Z,10.80
2023-04-15T20:51:37.723Z,10.90
2023-04-15T20:54:06.166Z,11.30
2023-04-15T20:56:34.248Z,11.85
2023-04-15T20:59:03.877Z,10.77
2023-04-15T21:01:32.079Z,10.27
2023-04-15T21:04:00.155Z,11.52
2023-04-15T21:06:28.253Z,10.63
2023-04-15T21:08:56.189Z,10.10
2023-04-15T21:11:43.073Z,10.23
2023-04-15T21:14:13.617Z,11.57
2023-04-15T21:16:41.766Z,11.63
2023-04-15T21:19:10.547Z,12.05
2023-04-15T21:21:38.634Z,13.10
2023-04-15T21:24:07.818Z,13.32
2023-04-15T21:26:36.845Z,15.93
2023-04-15T21:29:05.091Z,17.77
2023-04-15T21:31:35.284Z,17.02
2023-04-15T21:34:03.273Z,16.73
2023-04-15T21:36:31.654Z,18.30
2023-04-15T21:38:59.709Z,19.10
2023-04-15T21:41:27.863Z,22.48
2023-04-15T21:43:55.869Z,19.35
2023-04-15T21:46:25.734Z,18.92
2023-04-15T21:49:02.622Z,20.17
2023-04-15T21:51:31.602Z,22.98
2023-04-15T21:54:00.016Z,21.20
2023-04-15T21:56:28.039Z,19.10
2023-04-15T21:58:57.802Z,22.00
2023-04-15T22:01:27.637Z,21.67
2023-04-15T22:03:55.946Z,21.23
2023-04-15T22:06:25.354Z,21.83
2023-04-15T22:08:57.470Z,20.80
2023-04-15T22:11:27.907Z,23.35
2023-04-15T22:13:57.112Z,21.20
2023-04-15T22:16:26.362Z,24.38
2023-04-15T22:18:55.859Z,23.45
2023-04-15T22:21:25.408Z,23.98
2023-04-15T22:24:32.237Z,26.95
2023-04-15T22:26:41.835Z,25.35
2023-04-15T22:29:10.115Z,26.92
2023-04-15T22:31:38.088Z,24.13
2023-04-15T22:34:06.156Z,22.80
2023-04-15T22:36:35.599Z,26.20
2023-04-15T22:39:03.854Z,23.35
2023-04-15T22:41:32.023Z,21.95
2023-04-15T22:43:59.981Z,24.20
2023-04-15T22:46:28.007Z,22.70
2023-04-15T22:48:56.144Z,26.13
2023-04-15T22:51:26.843Z,25.08
2023-04-15T22:53:56.617Z,29.88
2023-04-15T22:56:24.925Z,26.95
2023-04-15T22:58:53.059Z,25.10
2023-04-15T23:01:21.316Z,30.10
2023-04-15T23:03:56.621Z,30.30
2023-04-15T23:06:33.635Z,29.38
2023-04-15T23:09:03.161Z,29.48
2023-04-15T23:11:31.141Z,30.95
2023-04-15T23:13:59.203Z,30.25
2023-04-15T23:16:27.805Z,31.58
2023-04-15T23:18:56.000Z,33.28
2023-04-15T23:21:26.030Z,30.75
2023-04-15T23:23:54.242Z,31.25
2023-04-15T23:26:24.485Z,26.02
2023-04-15T23:28:52.476Z,25.90
2023-04-15T23:31:20.537Z,27.38
2023-04-15T23:33:48.546Z,28.23
2023-04-15T23:36:16.538Z,29.63
2023-04-15T23:38:44.556Z,24.85
2023-04-15T23:41:12.594Z,25.30
2023-04-15T23:43:41.928Z,25.00
2023-04-15T23:46:09.897Z,25.20
2023-04-15T23:48:37.889Z,23.35
2023-04-15T23:51:06.638Z,21.02
2023-04-15T23:53:35.187Z,21.60
2023-04-15T23:56:03.254Z,19.83
2023-04-15T23:58:32.885Z,18.80
